sensor_id;sensor_type;location;lat;lon;timestamp;pressure;altitude;pressure_sealevel;temperature;humidity
15604;BME280;7902;49.042;9.092;2023-02-12T00:00:42;101098.38;;;9.08;56.59
15604;BME280;7902;49.042;9.092;2023-02-12T00:03:08;101088.72;;;9.09;57.26
15604;BME280;7902;49.042;9.092;2023-02-12T00:05:38;101093.03;;;9.11;57.00
15604;BME280;7902;49.042;9.092;2023-02-12T00:08:04;101091.31;;;9.10;56.61
15604;BME280;7902;49.042;9.092;2023-02-12T00:10:30;101098.38;;;9.08;57.25
15604;BME280;7902;49.042;9.092;2023-02-12T00:12:56;101101.06;;;9.07;56.90
15604;BME280;7902;49.042;9.092;2023-02-12T00:15:22;101095.50;;;9.16;56.30
15604;BME280;7902;49.042;9.092;2023-02-12T00:17:48;101101.59;;;9.16;55.66
15604;BME280;7902;49.042;9.092;2023-02-12T00:20:14;101108.38;;;9.22;55.04
15604;BME280;7902;49.042;9.092;2023-02-12T00:22:40;101103.16;;;9.22;55.22
15604;BME280;7902;49.042;9.092;2023-02-12T00:25:06;101110.25;;;9.18;54.81
15604;BME280;7902;49.042;9.092;2023-02-12T00:27:34;101107.47;;;9.23;55.14
15604;BME280;7902;49.042;9.092;2023-02-12T00:30:00;101112.88;;;9.18;55.64
15604;BME280;7902;49.042;9.092;2023-02-12T00:32:26;101106.84;;;9.16;55.85
15604;BME280;7902;49.042;9.092;2023-02-12T00:34:52;101105.81;;;9.20;55.15
15604;BME280;7902;49.042;9.092;2023-02-12T00:37:18;101108.47;;;9.19;56.35
15604;BME280;7902;49.042;9.092;2023-02-12T00:39:44;101109.50;;;9.15;55.97
15604;BME280;7902;49.042;9.092;2023-02-12T00:42:10;101113.88;;;9.14;56.47
15604;BME280;7902;49.042;9.092;2023-02-12T00:44:36;101115.59;;;9.15;56.34
15604;BME280;7902;49.042;9.092;2023-02-12T00:47:03;101111.22;;;9.16;57.09
15604;BME280;7902;49.042;9.092;2023-02-12T00:49:30;101106.78;;;9.18;56.59
15604;BME280;7902;49.042;9.092;2023-02-12T00:52:03;101115.59;;;9.15;56.95
15604;BME280;7902;49.042;9.092;2023-02-12T00:54:30;101119.25;;;9.11;58.24
15604;BME280;7902;49.042;9.092;2023-02-12T00:56:56;101106.69;;;9.21;58.08
15604;BME280;7902;49.042;9.092;2023-02-12T00:59:24;101120.63;;;9.21;57.96
15604;BME280;7902;49.042;9.092;2023-02-12T01:01:51;101119.91;;;9.18;57.14
15604;BME280;7902;49.042;9.092;2023-02-12T01:04:18;101107.56;;;9.20;57.48
15604;BME280;7902;49.042;9.092;2023-02-12T01:06:44;101111.75;;;9.25;57.96
15604;BME280;7902;49.042;9.092;2023-02-12T01:09:10;101115.41;;;9.21;56.88
15604;BME280;7902;49.042;9.092;2023-02-12T01:11:36;101111.16;;;9.17;58.09
15604;BME280;7902;49.042;9.092;2023-02-12T01:14:03;101104.91;;;9.21;57.62
15604;BME280;7902;49.042;9.092;2023-02-12T01:16:29;101119.13;;;9.14;58.15
15604;BME280;7902;49.042;9.092;2023-02-12T01:19:05;101116.31;;;9.20;57.94
15604;BME280;7902;49.042;9.092;2023-02-12T01:21:33;101121.44;;;9.23;57.61
15604;BME280;7902;49.042;9.092;2023-02-12T01:24:01;101125.06;;;9.19;57.57
15604;BME280;7902;49.042;9.092;2023-02-12T01:26:28;101122.44;;;9.19;57.22
15604;BME280;7902;49.042;9.092;2023-02-12T01:28:59;101123.13;;;9.24;56.05
15604;BME280;7902;49.042;9.092;2023-02-12T01:31:29;101117.00;;;9.25;56.05
15604;BME280;7902;49.042;9.092;2023-02-12T01:33:56;101120.63;;;9.21;56.90
15604;BME280;7902;49.042;9.092;2023-02-12T01:36:23;101114.34;;;9.27;56.35
15604;BME280;7902;49.042;9.092;2023-02-12T01:38:49;101109.28;;;9.21;56.58
15604;BME280;7902;49.042;9.092;2023-02-12T01:41:18;101110.06;;;9.23;57.09
15604;BME280;7902;49.042;9.092;2023-02-12T01:43:44;101104.78;;;9.24;57.16
15604;BME280;7902;49.042;9.092;2023-02-12T01:46:14;101104.91;;;9.21;57.85
15604;BME280;7902;49.042;9.092;2023-02-12T01:48:44;101110.25;;;9.18;58.13
15604;BME280;7902;49.042;9.092;2023-02-12T01:51:16;101101.69;;;9.13;57.92
15604;BME280;7902;49.042;9.092;2023-02-12T01:53:49;101104.53;;;9.07;59.05
15604;BME280;7902;49.042;9.092;2023-02-12T01:56:15;101101.44;;;9.21;58.52
15604;BME280;7902;49.042;9.092;2023-02-12T01:58:43;101097.91;;;9.22;57.96
15604;BME280;7902;49.042;9.092;2023-02-12T02:01:16;101097.94;;;9.20;57.90
15604;BME280;7902;49.042;9.092;2023-02-12T02:03:45;101089.28;;;9.18;57.39
15604;BME280;7902;49.042;9.092;2023-02-12T02:06:15;101084.88;;;9.19;57.77
15604;BME280;7902;49.042;9.092;2023-02-12T02:08:41;101092.72;;;9.20;57.92
15604;BME280;7902;49.042;9.092;2023-02-12T02:11:08;101093.44;;;9.24;58.31
15604;BME280;7902;49.042;9.092;2023-02-12T02:13:53;101088.22;;;9.24;57.81
15604;BME280;7902;49.042;9.092;2023-02-12T02:16:47;101084.84;;;9.20;57.93
15604;BME280;7902;49.042;9.092;2023-02-12T02:19:34;101095.28;;;9.22;57.38
15604;BME280;7902;49.042;9.092;2023-02-12T02:22:23;101089.97;;;9.23;56.86
15604;BME280;7902;49.042;9.092;2023-02-12T02:30:54;101082.78;;;9.29;56.37
15604;BME280;7902;49.042;9.092;2023-02-12T02:39:22;101078.16;;;9.37;55.49
15604;BME280;7902;49.042;9.092;2023-02-12T02:42:03;101075.56;;;9.35;55.88
15604;BME280;7902;49.042;9.092;2023-02-12T02:44:36;101082.63;;;9.33;55.71
15604;BME280;7902;49.042;9.092;2023-02-12T02:47:09;101088.13;;;9.27;57.19
15604;BME280;7902;49.042;9.092;2023-02-12T02:49:45;101079.41;;;9.27;57.87
15604;BME280;7902;49.042;9.092;2023-02-12T02:52:23;101077.38;;;9.33;57.95
15604;BME280;7902;49.042;9.092;2023-02-12T02:54:55;101074.59;;;9.38;57.48
15604;BME280;7902;49.042;9.092;2023-02-12T02:57:35;101082.78;;;9.29;58.49
15604;BME280;7902;49.042;9.092;2023-02-12T03:01:06;101084.22;;;9.37;57.67
15604;BME280;7902;49.042;9.092;2023-02-12T03:05:53;101088.94;;;9.27;58.49
15604;BME280;7902;49.042;9.092;2023-02-12T03:08:26;101087.34;;;9.23;58.21
15604;BME280;7902;49.042;9.092;2023-02-12T03:11:04;101088.94;;;9.27;58.43
15604;BME280;7902;49.042;9.092;2023-02-12T03:13:36;101091.63;;;9.26;58.03
15604;BME280;7902;49.042;9.092;2023-02-12T03:16:17;101097.50;;;9.33;58.27
15604;BME280;7902;49.042;9.092;2023-02-12T03:18:53;101098.28;;;9.36;58.38
15604;BME280;7902;49.042;9.092;2023-02-12T03:21:30;101095.69;;;9.35;58.08
15604;BME280;7902;49.042;9.092;2023-02-12T03:24:04;101098.28;;;9.36;57.64
15604;BME280;7902;49.042;9.092;2023-02-12T03:26:43;101100.91;;;9.36;57.45
15604;BME280;7902;49.042;9.092;2023-02-12T03:29:11;101093.13;;;9.33;58.22
15604;BME280;7902;49.042;9.092;2023-02-12T03:36:57;101095.56;;;9.38;57.70
15604;BME280;7902;49.042;9.092;2023-02-12T03:42:44;101111.31;;;9.38;58.14
15604;BME280;7902;49.042;9.092;2023-02-12T03:48:27;101091.44;;;9.32;58.49
15604;BME280;7902;49.042;9.092;2023-02-12T03:53:44;101102.59;;;9.37;58.05
15604;BME280;7902;49.042;9.092;2023-02-12T03:56:23;101098.38;;;9.33;58.85
15604;BME280;7902;49.042;9.092;2023-02-12T03:58:50;101096.50;;;9.37;58.17
15604;BME280;7902;49.042;9.092;2023-02-12T04:01:16;101099.97;;;9.37;58.75
15604;BME280;7902;49.042;9.092;2023-02-12T04:03:42;101109.66;;;9.35;58.31
15604;BME280;7902;49.042;9.092;2023-02-12T04:06:26;101105.97;;;9.41;58.71
15604;BME280;7902;49.042;9.092;2023-02-12T04:08:56;101105.03;;;9.42;58.39
15604;BME280;7902;49.042;9.092;2023-02-12T04:14:19;101107.91;;;9.36;59.03
15604;BME280;7902;49.042;9.092;2023-02-12T04:24:01;101114.88;;;9.37;57.90
15604;BME280;7902;49.042;9.092;2023-02-12T04:26:33;101103.69;;;9.32;58.41
15604;BME280;7902;49.042;9.092;2023-02-12T04:32:19;101118.38;;;9.36;58.84
15604;BME280;7902;49.042;9.092;2023-02-12T04:37:16;101116.72;;;9.33;58.69
15604;BME280;7902;49.042;9.092;2023-02-12T04:39:43;101109.19;;;9.24;58.94
15604;BME280;7902;49.042;9.092;2023-02-12T04:42:10;101120.19;;;9.34;58.15
15604;BME280;7902;49.042;9.092;2023-02-12T04:44:39;101117.56;;;9.34;57.96
15604;BME280;7902;49.042;9.092;2023-02-12T04:47:05;101124.50;;;9.36;58.13
15604;BME280;7902;49.042;9.092;2023-02-12T04:49:31;101130.47;;;9.40;58.44
15604;BME280;7902;49.042;9.092;2023-02-12T04:51:57;101123.50;;;9.39;58.19
15604;BME280;7902;49.042;9.092;2023-02-12T04:54:23;101127.84;;;9.40;57.76
15604;BME280;7902;49.042;9.092;2023-02-12T04:56:50;101127.72;;;9.43;57.83
15604;BME280;7902;49.042;9.092;2023-02-12T04:59:16;101129.56;;;9.41;58.18
15604;BME280;7902;49.042;9.092;2023-02-12T05:01:43;101128.72;;;9.40;57.98
15604;BME280;7902;49.042;9.092;2023-02-12T05:04:12;101126.72;;;9.47;57.33
15604;BME280;7902;49.042;9.092;2023-02-12T05:06:38;101125.22;;;9.40;58.21
15604;BME280;7902;49.042;9.092;2023-02-12T05:09:07;101120.00;;;9.40;58.12
15604;BME280;7902;49.042;9.092;2023-02-12T05:11:33;101120.00;;;9.40;58.18
15604;BME280;7902;49.042;9.092;2023-02-12T05:13:59;101120.16;;;9.35;57.95
15604;BME280;7902;49.042;9.092;2023-02-12T05:16:25;101113.88;;;9.39;57.83
15604;BME280;7902;49.042;9.092;2023-02-12T05:18:51;101115.47;;;9.43;57.62
15604;BME280;7902;49.042;9.092;2023-02-12T05:21:17;101114.63;;;9.43;57.62
15604;BME280;7902;49.042;9.092;2023-02-12T05:23:43;101118.06;;;9.45;57.51
15604;BME280;7902;49.042;9.092;2023-02-12T05:26:12;101117.16;;;9.46;57.34
15604;BME280;7902;49.042;9.092;2023-02-12T05:28:38;101118.16;;;9.42;56.80
15604;BME280;7902;49.042;9.092;2023-02-12T05:31:06;101117.19;;;9.44;57.21
15604;BME280;7902;49.042;9.092;2023-02-12T05:33:33;101127.72;;;9.43;57.86
15604;BME280;7902;49.042;9.092;2023-02-12T05:36:12;101122.44;;;9.44;58.08
15604;BME280;7902;49.042;9.092;2023-02-12T05:38:39;101116.13;;;9.50;56.72
15604;BME280;7902;49.042;9.092;2023-02-12T05:41:10;101121.47;;;9.47;57.89
15604;BME280;7902;49.042;9.092;2023-02-12T05:43:36;101123.25;;;9.46;57.65
15604;BME280;7902;49.042;9.092;2023-02-12T05:46:03;101124.00;;;9.50;57.35
15604;BME280;7902;49.042;9.092;2023-02-12T05:48:30;101120.69;;;9.45;57.43
15604;BME280;7902;49.042;9.092;2023-02-12T05:51:13;101125.81;;;9.48;57.26
15604;BME280;7902;49.042;9.092;2023-02-12T05:53:40;101128.63;;;9.42;58.19
15604;BME280;7902;49.042;9.092;2023-02-12T05:58:47;101120.63;;;9.46;58.01
15604;BME280;7902;49.042;9.092;2023-02-12T06:01:19;101121.59;;;9.44;58.26
15604;BME280;7902;49.042;9.092;2023-02-12T06:03:46;101128.56;;;9.45;57.58
15604;BME280;7902;49.042;9.092;2023-02-12T06:06:12;101128.63;;;9.42;57.86
15604;BME280;7902;49.042;9.092;2023-02-12T06:08:38;101125.03;;;9.46;58.22
15604;BME280;7902;49.042;9.092;2023-02-12T06:11:07;101128.50;;;9.46;58.00
15604;BME280;7902;49.042;9.092;2023-02-12T06:13:33;101123.19;;;9.48;57.88
15604;BME280;7902;49.042;9.092;2023-02-12T06:15:59;101131.16;;;9.45;57.07
15604;BME280;7902;49.042;9.092;2023-02-12T06:18:26;101131.13;;;9.46;57.24
15604;BME280;7902;49.042;9.092;2023-02-12T06:20:52;101141.50;;;9.49;57.46
15604;BME280;7902;49.042;9.092;2023-02-12T06:23:22;101136.47;;;9.43;57.55
15604;BME280;7902;49.042;9.092;2023-02-12T06:25:49;101128.50;;;9.46;57.92
15604;BME280;7902;49.042;9.092;2023-02-12T06:28:16;101128.38;;;9.49;57.04
15604;BME280;7902;49.042;9.092;2023-02-12T06:30:42;101141.53;;;9.48;56.57
15604;BME280;7902;49.042;9.092;2023-02-12T06:33:08;101136.22;;;9.51;57.61
15604;BME280;7902;49.042;9.092;2023-02-12T06:35:35;101135.28;;;9.52;57.16
15604;BME280;7902;49.042;9.092;2023-02-12T06:38:01;101138.59;;;9.57;56.58
15604;BME280;7902;49.042;9.092;2023-02-12T06:40:27;101143.06;;;9.55;57.13
15604;BME280;7902;49.042;9.092;2023-02-12T06:42:53;101150.16;;;9.51;57.42
15604;BME280;7902;49.042;9.092;2023-02-12T06:45:19;101155.41;;;9.51;57.76
15604;BME280;7902;49.042;9.092;2023-02-12T06:47:45;101157.84;;;9.56;57.29
15604;BME280;7902;49.042;9.092;2023-02-12T06:50:11;101157.97;;;9.53;57.41
15604;BME280;7902;49.042;9.092;2023-02-12T06:52:37;101161.50;;;9.52;58.08
15604;BME280;7902;49.042;9.092;2023-02-12T06:55:03;101166.16;;;9.44;58.43
15604;BME280;7902;49.042;9.092;2023-02-12T06:57:29;101160.63;;;9.51;57.96
15604;BME280;7902;49.042;9.092;2023-02-12T06:59:55;101159.69;;;9.54;57.97
15604;BME280;7902;49.042;9.092;2023-02-12T07:02:21;101171.94;;;9.53;57.02
15604;BME280;7902;49.042;9.092;2023-02-12T07:04:47;101170.31;;;9.51;57.85
15604;BME280;7902;49.042;9.092;2023-02-12T07:07:13;101162.59;;;9.46;58.33
15604;BME280;7902;49.042;9.092;2023-02-12T07:09:39;101164.94;;;9.54;58.20
15604;BME280;7902;49.042;9.092;2023-02-12T07:12:05;101164.91;;;9.55;58.00
15604;BME280;7902;49.042;9.092;2023-02-12T07:14:31;101167.44;;;9.57;57.29
15604;BME280;7902;49.042;9.092;2023-02-12T07:16:57;101167.50;;;9.55;57.04
15604;BME280;7902;49.042;9.092;2023-02-12T07:19:23;101175.31;;;9.57;56.89
15604;BME280;7902;49.042;9.092;2023-02-12T07:21:49;101170.06;;;9.57;57.80
15604;BME280;7902;49.042;9.092;2023-02-12T07:24:15;101165.63;;;9.59;56.53
15604;BME280;7902;49.042;9.092;2023-02-12T07:26:42;101172.53;;;9.61;56.03
15604;BME280;7902;49.042;9.092;2023-02-12T07:29:09;101168.13;;;9.62;56.91
15604;BME280;7902;49.042;9.092;2023-02-12T07:31:35;101173.38;;;9.62;55.67
15604;BME280;7902;49.042;9.092;2023-02-12T07:34:01;101171.75;;;9.59;56.42
15604;BME280;7902;49.042;9.092;2023-02-12T07:36:29;101159.41;;;9.61;56.20
15604;BME280;7902;49.042;9.092;2023-02-12T07:38:56;101168.25;;;9.59;56.09
15604;BME280;7902;49.042;9.092;2023-02-12T07:41:26;101167.34;;;9.60;56.56
15604;BME280;7902;49.042;9.092;2023-02-12T07:43:54;101164.66;;;9.61;55.61
15604;BME280;7902;49.042;9.092;2023-02-12T07:46:26;101170.84;;;9.60;55.57
15604;BME280;7902;49.042;9.092;2023-02-12T07:48:57;101169.66;;;9.69;55.02
15604;BME280;7902;49.042;9.092;2023-02-12T07:51:24;101173.22;;;9.66;56.27
15604;BME280;7902;49.042;9.092;2023-02-12T07:53:51;101171.91;;;9.55;56.09
15604;BME280;7902;49.042;9.092;2023-02-12T07:56:19;101171.09;;;9.53;56.58
15604;BME280;7902;49.042;9.092;2023-02-12T07:58:47;101179.50;;;9.62;56.17
15604;BME280;7902;49.042;9.092;2023-02-12T08:01:37;101182.22;;;9.59;55.98
15604;BME280;7902;49.042;9.092;2023-02-12T08:04:06;101176.00;;;9.62;55.79
15604;BME280;7902;49.042;9.092;2023-02-12T08:06:34;101178.78;;;9.57;55.49
15604;BME280;7902;49.042;9.092;2023-02-12T08:09:02;101168.47;;;9.53;55.61
15604;BME280;7902;49.042;9.092;2023-02-12T08:11:28;101170.91;;;9.57;55.73
15604;BME280;7902;49.042;9.092;2023-02-12T08:13:56;101176.88;;;9.62;55.97
15604;BME280;7902;49.042;9.092;2023-02-12T08:16:23;101170.75;;;9.62;55.34
15604;BME280;7902;49.042;9.092;2023-02-12T08:18:50;101172.53;;;9.61;55.93
15604;BME280;7902;49.042;9.092;2023-02-12T08:21:21;101169.16;;;9.58;55.96
15604;BME280;7902;49.042;9.092;2023-02-12T08:23:47;101171.75;;;9.59;55.82
15604;BME280;7902;49.042;9.092;2023-02-12T08:26:20;101179.69;;;9.56;55.85
15604;BME280;7902;49.042;9.092;2023-02-12T08:28:50;101177.16;;;9.55;55.77
15604;BME280;7902;49.042;9.092;2023-02-12T08:31:19;101178.84;;;9.56;56.36
15604;BME280;7902;49.042;9.092;2023-02-12T08:33:47;101185.72;;;9.60;55.62
15604;BME280;7902;49.042;9.092;2023-02-12T08:36:16;101177.59;;;9.66;55.27
15604;BME280;7902;49.042;9.092;2023-02-12T08:38:44;101184.09;;;9.56;55.64
15604;BME280;7902;49.042;9.092;2023-02-12T08:41:12;101190.16;;;9.58;56.08
15604;BME280;7902;49.042;9.092;2023-02-12T08:43:40;101186.50;;;9.62;54.92
15604;BME280;7902;49.042;9.092;2023-02-12T08:46:09;101186.88;;;9.51;56.49
15604;BME280;7902;49.042;9.092;2023-02-12T08:48:36;101182.16;;;9.61;56.10
15604;BME280;7902;49.042;9.092;2023-02-12T08:51:16;101191.66;;;9.65;55.42
15604;BME280;7902;49.042;9.092;2023-02-12T08:53:45;101192.59;;;9.62;56.61
15604;BME280;7902;49.042;9.092;2023-02-12T08:56:13;101196.81;;;9.66;55.42
15604;BME280;7902;49.042;9.092;2023-02-12T08:58:40;101199.38;;;9.69;56.23
15604;BME280;7902;49.042;9.092;2023-02-12T09:01:12;101187.03;;;9.72;55.40
15604;BME280;7902;49.042;9.092;2023-02-12T09:03:38;101194.03;;;9.71;56.00
15604;BME280;7902;49.042;9.092;2023-02-12T09:06:05;101189.66;;;9.72;55.35
15604;BME280;7902;49.042;9.092;2023-02-12T09:08:32;101195.88;;;9.69;55.56
15604;BME280;7902;49.042;9.092;2023-02-12T09:10:58;101192.44;;;9.67;56.16
15604;BME280;7902;49.042;9.092;2023-02-12T09:13:24;101197.47;;;9.73;56.02
15604;BME280;7902;49.042;9.092;2023-02-12T09:15:50;101187.16;;;9.68;55.81
15604;BME280;7902;49.042;9.092;2023-02-12T09:18:16;101194.66;;;9.79;55.86
15604;BME280;7902;49.042;9.092;2023-02-12T09:20:43;101195.56;;;9.78;55.72
15604;BME280;7902;49.042;9.092;2023-02-12T09:23:11;101198.97;;;9.80;55.93
15604;BME280;7902;49.042;9.092;2023-02-12T09:25:39;101190.06;;;9.84;56.12
15604;BME280;7902;49.042;9.092;2023-02-12T09:28:05;101190.50;;;9.72;56.06
15604;BME280;7902;49.042;9.092;2023-02-12T09:30:31;101190.56;;;9.70;56.83
15604;BME280;7902;49.042;9.092;2023-02-12T09:32:57;101189.59;;;9.73;54.97
15604;BME280;7902;49.042;9.092;2023-02-12T09:35:23;101191.53;;;9.68;55.63
15604;BME280;7902;49.042;9.092;2023-02-12T09:37:51;101191.50;;;9.69;55.29
15604;BME280;7902;49.042;9.092;2023-02-12T09:40:21;101185.25;;;9.72;55.16
15604;BME280;7902;49.042;9.092;2023-02-12T09:43:14;101196.41;;;9.79;55.67
15604;BME280;7902;49.042;9.092;2023-02-12T09:46:03;101194.69;;;9.78;54.86
15604;BME280;7902;49.042;9.092;2023-02-12T09:48:36;101196.44;;;9.77;54.96
15604;BME280;7902;49.042;9.092;2023-02-12T09:51:07;101200.16;;;9.72;55.73
15604;BME280;7902;49.042;9.092;2023-02-12T09:53:39;101196.84;;;9.90;55.76
15604;BME280;7902;49.042;9.092;2023-02-12T09:56:17;101198.28;;;9.98;56.63
15604;BME280;7902;49.042;9.092;2023-02-12T09:58:51;101196.69;;;9.94;57.11
15604;BME280;7902;49.042;9.092;2023-02-12T10:01:21;101194.69;;;9.78;57.74
15604;BME280;7902;49.042;9.092;2023-02-12T10:03:49;101197.19;;;9.81;56.18
15604;BME280;7902;49.042;9.092;2023-02-12T10:06:19;101194.19;;;9.91;57.78
15604;BME280;7902;49.042;9.092;2023-02-12T10:14:09;101198.06;;;9.81;56.34
15604;BME280;7902;49.042;9.092;2023-02-12T10:27:38;101189.28;;;9.82;56.08
15604;BME280;7902;49.042;9.092;2023-02-12T10:33:13;101196.13;;;9.86;55.17
15604;BME280;7902;49.042;9.092;2023-02-12T10:35:46;101188.97;;;9.90;54.76
15604;BME280;7902;49.042;9.092;2023-02-12T10:38:18;101184.59;;;9.90;55.71
15604;BME280;7902;49.042;9.092;2023-02-12T10:40:44;101184.72;;;9.87;55.38
15604;BME280;7902;49.042;9.092;2023-02-12T10:43:13;101181.09;;;9.90;55.50
15604;BME280;7902;49.042;9.092;2023-02-12T10:45:41;101182.00;;;9.89;55.41
15604;BME280;7902;49.042;9.092;2023-02-12T10:53:35;101177.63;;;9.89;55.92
15604;BME280;7902;49.042;9.092;2023-02-12T10:59:00;101174.84;;;9.94;56.05
15604;BME280;7902;49.042;9.092;2023-02-12T11:01:34;101161.97;;;9.88;55.94
15604;BME280;7902;49.042;9.092;2023-02-12T11:04:23;101162.66;;;9.93;56.37
15604;BME280;7902;49.042;9.092;2023-02-12T11:09:47;101164.34;;;9.94;55.62
15604;BME280;7902;49.042;9.092;2023-02-12T11:14:48;101162.41;;;9.99;56.40
15604;BME280;7902;49.042;9.092;2023-02-12T11:17:26;101155.47;;;9.98;55.21
15604;BME280;7902;49.042;9.092;2023-02-12T11:20:05;101151.56;;;10.08;55.06
15604;BME280;7902;49.042;9.092;2023-02-12T11:22:35;101151.72;;;10.03;55.73
15604;BME280;7902;49.042;9.092;2023-02-12T11:25:13;101149.06;;;10.05;55.09
15604;BME280;7902;49.042;9.092;2023-02-12T11:27:43;101159.50;;;10.06;55.47
15604;BME280;7902;49.042;9.092;2023-02-12T11:32:35;101149.00;;;10.06;55.07
15604;BME280;7902;49.042;9.092;2023-02-12T11:35:16;101137.59;;;10.07;55.36
15604;BME280;7902;49.042;9.092;2023-02-12T11:37:48;101145.47;;;10.07;55.83
15604;BME280;7902;49.042;9.092;2023-02-12T11:40:23;101144.50;;;10.10;55.70
15604;BME280;7902;49.042;9.092;2023-02-12T11:43:06;101147.16;;;10.08;55.13
15604;BME280;7902;49.042;9.092;2023-02-12T11:45:41;101143.50;;;10.12;55.29
15604;BME280;7902;49.042;9.092;2023-02-12T11:48:34;101140.81;;;10.14;56.17
15604;BME280;7902;49.042;9.092;2023-02-12T11:51:05;101151.63;;;10.06;56.39
15604;BME280;7902;49.042;9.092;2023-02-12T11:53:41;101145.97;;;10.17;55.59
15604;BME280;7902;49.042;9.092;2023-02-12T11:56:12;101149.47;;;10.18;55.14
15604;BME280;7902;49.042;9.092;2023-02-12T11:58:39;101139.03;;;10.16;55.90
15604;BME280;7902;49.042;9.092;2023-02-12T12:01:24;101140.69;;;10.19;56.22
15604;BME280;7902;49.042;9.092;2023-02-12T12:03:59;101139.56;;;10.26;55.75
15604;BME280;7902;49.042;9.092;2023-02-12T12:06:47;101130.28;;;10.39;55.44
15604;BME280;7902;49.042;9.092;2023-02-12T12:09:19;101118.41;;;10.29;55.93
15604;BME280;7902;49.042;9.092;2023-02-12T12:14:41;101120.81;;;10.35;56.26
15604;BME280;7902;49.042;9.092;2023-02-12T12:17:44;101115.25;;;10.42;55.55
15604;BME280;7902;49.042;9.092;2023-02-12T12:20:35;101116.91;;;10.45;54.54
15604;BME280;7902;49.042;9.092;2023-02-12T12:23:08;101118.00;;;10.39;55.04
15604;BME280;7902;49.042;9.092;2023-02-12T12:25:55;101113.41;;;10.44;56.85
15604;BME280;7902;49.042;9.092;2023-02-12T12:28:44;101114.16;;;10.48;54.73
15604;BME280;7902;49.042;9.092;2023-02-12T12:34:17;101113.53;;;10.41;55.19
15604;BME280;7902;49.042;9.092;2023-02-12T12:39:34;101107.31;;;10.44;56.33
15604;BME280;7902;49.042;9.092;2023-02-12T12:50:41;101092.63;;;10.60;55.65
15604;BME280;7902;49.042;9.092;2023-02-12T12:59:21;101081.56;;;10.52;56.26
15604;BME280;7902;49.042;9.092;2023-02-12T13:23:14;101062.31;;;10.93;54.54
15604;BME280;7902;49.042;9.092;2023-02-12T13:25:59;101056.66;;;10.82;55.19
15604;BME280;7902;49.042;9.092;2023-02-12T13:28:35;101048.91;;;10.99;53.69
15604;BME280;7902;49.042;9.092;2023-02-12T13:31:06;101051.34;;;11.04;53.72
15604;BME280;7902;49.042;9.092;2023-02-12T13:33:41;101046.41;;;10.96;56.19
15604;BME280;7902;49.042;9.092;2023-02-12T13:36:10;101046.78;;;11.08;55.39
15604;BME280;7902;49.042;9.092;2023-02-12T13:38:41;101040.28;;;11.16;54.29
15604;BME280;7902;49.042;9.092;2023-02-12T13:41:09;101036.41;;;11.05;56.45
15604;BME280;7902;49.042;9.092;2023-02-12T13:46:32;101028.78;;;11.19;55.09
15604;BME280;7902;49.042;9.092;2023-02-12T13:51:46;101027.66;;;11.24;54.77
15604;BME280;7902;49.042;9.092;2023-02-12T13:57:01;101025.75;;;11.28;56.67
15604;BME280;7902;49.042;9.092;2023-02-12T14:07:02;101013.78;;;11.39;56.19
15604;BME280;7902;49.042;9.092;2023-02-12T14:09:33;101019.00;;;11.41;56.13
15604;BME280;7902;49.042;9.092;2023-02-12T14:12:00;101018.28;;;11.37;55.55
15604;BME280;7902;49.042;9.092;2023-02-12T14:14:31;101008.84;;;11.52;54.92
15604;BME280;7902;49.042;9.092;2023-02-12T14:27:52;101012.88;;;11.59;54.87
15604;BME280;7902;49.042;9.092;2023-02-12T14:30:36;101006.16;;;11.72;54.80
15604;BME280;7902;49.042;9.092;2023-02-12T14:35:35;101002.25;;;11.62;54.66
15604;BME280;7902;49.042;9.092;2023-02-12T14:41:14;101000.09;;;11.70;54.74
15604;BME280;7902;49.042;9.092;2023-02-12T14:46:48;101002.53;;;11.75;54.76
15604;BME280;7902;49.042;9.092;2023-02-12T14:49:22;100996.41;;;11.74;55.07
15604;BME280;7902;49.042;9.092;2023-02-12T14:54:51;101000.16;;;11.69;55.03
15604;BME280;7902;49.042;9.092;2023-02-12T14:59:55;101002.59;;;11.73;55.46
15604;BME280;7902;49.042;9.092;2023-02-12T15:02:24;100986.88;;;11.72;55.63
15604;BME280;7902;49.042;9.092;2023-02-12T15:04:53;100996.41;;;11.74;54.33
15604;BME280;7902;49.042;9.092;2023-02-12T15:07:28;100992.72;;;11.78;54.64
15604;BME280;7902;49.042;9.092;2023-02-12T15:10:12;100997.69;;;11.84;55.14
15604;BME280;7902;49.042;9.092;2023-02-12T15:12:47;100981.91;;;11.84;55.28
15604;BME280;7902;49.042;9.092;2023-02-12T15:15:27;100984.47;;;11.86;56.21
15604;BME280;7902;49.042;9.092;2023-02-12T15:18:13;100983.63;;;11.85;55.12
15604;BME280;7902;49.042;9.092;2023-02-12T15:20:59;100981.50;;;11.75;55.58
15604;BME280;7902;49.042;9.092;2023-02-12T15:23:41;100976.63;;;11.84;55.31
15604;BME280;7902;49.042;9.092;2023-02-12T15:26:14;100990.72;;;11.83;56.11
15604;BME280;7902;49.042;9.092;2023-02-12T15:28:41;100980.19;;;11.83;55.19
15604;BME280;7902;49.042;9.092;2023-02-12T15:31:14;100973.72;;;11.91;55.26
15604;BME280;7902;49.042;9.092;2023-02-12T15:33:45;100978.19;;;11.88;54.77
15604;BME280;7902;49.042;9.092;2023-02-12T15:36:17;100978.19;;;11.88;54.54
15604;BME280;7902;49.042;9.092;2023-02-12T15:38:48;100980.88;;;11.87;55.02
15604;BME280;7902;49.042;9.092;2023-02-12T15:41:41;100977.50;;;11.85;55.39
15604;BME280;7902;49.042;9.092;2023-02-12T15:44:28;100967.53;;;11.73;56.18
15604;BME280;7902;49.042;9.092;2023-02-12T15:49:34;100971.81;;;11.75;55.25
15604;BME280;7902;49.042;9.092;2023-02-12T15:52:05;100965.94;;;11.69;56.02
15604;BME280;7902;49.042;9.092;2023-02-12T15:54:33;100962.84;;;11.79;56.36
15604;BME280;7902;49.042;9.092;2023-02-12T15:57:00;100964.56;;;11.80;55.13
15604;BME280;7902;49.042;9.092;2023-02-12T15:59:29;100965.25;;;11.84;54.62
15604;BME280;7902;49.042;9.092;2023-02-12T16:01:58;100965.31;;;11.82;54.77
15604;BME280;7902;49.042;9.092;2023-02-12T16:04:28;100958.44;;;11.80;54.44
15604;BME280;7902;49.042;9.092;2023-02-12T16:06:55;100954.50;;;11.70;55.51
15604;BME280;7902;49.042;9.092;2023-02-12T16:09:31;100954.72;;;11.84;54.65
15604;BME280;7902;49.042;9.092;2023-02-12T16:12:03;100953.09;;;11.81;55.05
15604;BME280;7902;49.042;9.092;2023-02-12T16:14:40;100951.31;;;11.82;54.85
15604;BME280;7902;49.042;9.092;2023-02-12T16:22:49;100960.78;;;11.86;55.15